Time;durP1;ratioP1;P1;durP2;ratioP2;P2;SDS_P1;SDS_P2;PMS_P1;PMS_P2;Temp;Humidity;BMP_temperature;BMP_pressure;BME280_temperature;BME280_humidity;BME280_pressure;Samples;Min_cycle;Max_cycle;Signal;HPM_P1;HPM_P2
2023/10/31 00:02:08;;;;;;;5.90;3.83;;;10.60;99.90;;;;;;4936215;29;20489;-73
2023/10/31 00:04:34;;;;;;;7.63;4.20;;;10.60;99.90;;;;;;4943120;29;20266;-74
2023/10/31 00:06:59;;;;;;;10.87;6.80;;;10.50;99.90;;;;;;4931004;29;20468;-72
2023/10/31 00:09:25;;;;;;;9.93;6.40;;;10.50;99.90;;;;;;4934943;29;20202;-74
2023/10/31 00:11:51;;;;;;;10.67;6.97;;;10.50;99.90;;;;;;4912518;29;20413;-74
2023/10/31 00:14:17;;;;;;;10.03;7.40;;;10.50;99.90;;;;;;4933889;29;20197;-75
2023/10/31 00:16:42;;;;;;;11.17;7.33;;;10.50;99.90;;;;;;4933695;29;20198;-75
2023/10/31 00:19:08;;;;;;;8.37;6.87;;;10.50;99.90;;;;;;4933413;29;20608;-74
2023/10/31 00:21:34;;;;;;;8.50;6.37;;;10.50;99.90;;;;;;4936186;29;20209;-72
2023/10/31 00:23:59;;;;;;;7.83;6.07;;;10.60;99.90;;;;;;4892372;29;20545;-76
2023/10/31 00:26:25;;;;;;;6.60;4.80;;;10.60;99.90;;;;;;4931961;29;20166;-74
2023/10/31 00:28:52;;;;;;;7.73;5.03;;;10.70;99.90;;;;;;4937737;29;20191;-74
2023/10/31 00:31:18;;;;;;;7.23;5.60;;;10.70;99.90;;;;;;4925066;29;20872;-71
2023/10/31 00:33:43;;;;;;;7.97;5.97;;;10.70;99.90;;;;;;4918401;29;20201;-73
2023/10/31 00:36:09;;;;;;;13.03;9.00;;;10.70;99.90;;;;;;4906320;29;20495;-73
2023/10/31 00:38:35;;;;;;;12.73;9.67;;;10.70;99.90;;;;;;4933906;29;20193;-73
2023/10/31 00:41:00;;;;;;;17.80;9.83;;;10.60;99.90;;;;;;4946179;29;20206;-74
2023/10/31 00:43:26;;;;;;;11.80;8.53;;;10.50;99.90;;;;;;4941558;29;20194;-73
2023/10/31 00:45:52;;;;;;;17.40;8.80;;;10.40;99.90;;;;;;4931203;29;20219;-73
2023/10/31 00:48:19;;;;;;;13.00;9.17;;;10.30;99.90;;;;;;4941315;29;20229;-75
2023/10/31 00:50:44;;;;;;;14.87;8.73;;;10.30;99.90;;;;;;4935618;29;20185;-74
2023/10/31 00:53:10;;;;;;;10.27;7.40;;;10.30;99.90;;;;;;4898442;29;20509;-72
2023/10/31 00:55:35;;;;;;;11.47;7.40;;;10.30;99.90;;;;;;4921552;29;20217;-73
2023/10/31 00:58:01;;;;;;;10.97;7.67;;;10.30;99.90;;;;;;4917672;29;20220;-74
2023/10/31 01:00:27;;;;;;;12.40;8.77;;;10.30;99.90;;;;;;4933859;29;20446;-75
2023/10/31 01:02:53;;;;;;;15.77;9.07;;;10.20;99.90;;;;;;4925633;29;20534;-73
2023/10/31 01:05:19;;;;;;;8.73;7.63;;;10.20;99.90;;;;;;4930159;29;20454;-74
2023/10/31 01:07:45;;;;;;;9.40;7.07;;;10.10;99.90;;;;;;4907579;29;20579;-74
2023/10/31 01:10:11;;;;;;;11.93;7.93;;;10.10;99.90;;;;;;4933951;29;20190;-72
2023/10/31 01:12:37;;;;;;;14.27;7.90;;;10.10;99.90;;;;;;4935685;29;20440;-74
2023/10/31 01:15:03;;;;;;;15.00;7.20;;;10.10;99.90;;;;;;4931266;29;20269;-73
2023/10/31 01:17:28;;;;;;;11.13;7.00;;;10.00;99.90;;;;;;4943104;29;20434;-73
2023/10/31 01:19:55;;;;;;;8.93;6.40;;;9.90;99.90;;;;;;4926436;29;20414;-75
2023/10/31 01:22:20;;;;;;;6.20;5.60;;;9.70;99.90;;;;;;4936792;29;20454;-74
2023/10/31 01:24:46;;;;;;;8.53;6.27;;;9.60;99.90;;;;;;4934591;29;20261;-74
2023/10/31 01:27:11;;;;;;;7.13;5.10;;;9.60;99.90;;;;;;4908920;29;20199;-74
2023/10/31 01:29:37;;;;;;;6.77;5.33;;;9.50;99.90;;;;;;4906422;29;20192;-74
2023/10/31 01:32:03;;;;;;;7.23;5.43;;;9.50;99.90;;;;;;4940945;29;20521;-74
2023/10/31 01:34:28;;;;;;;6.13;4.87;;;9.50;99.90;;;;;;4926638;29;20222;-73
2023/10/31 01:36:54;;;;;;;6.30;5.47;;;9.50;99.90;;;;;;4934014;29;20190;-73
2023/10/31 01:39:19;;;;;;;8.53;6.23;;;9.40;99.90;;;;;;4923292;29;20209;-72
2023/10/31 01:41:46;;;;;;;9.77;5.00;;;9.40;99.90;;;;;;4915480;29;20225;-74
2023/10/31 01:44:11;;;;;;;5.67;4.87;;;9.40;99.90;;;;;;4926419;29;20186;-72
2023/10/31 01:46:37;;;;;;;8.50;4.83;;;9.40;99.90;;;;;;4931484;29;20691;-75
2023/10/31 01:49:03;;;;;;;6.87;5.00;;;9.40;99.90;;;;;;4937266;29;20182;-73
2023/10/31 01:51:29;;;;;;;4.40;3.80;;;9.40;99.90;;;;;;4932456;29;20221;-73
2023/10/31 01:53:55;;;;;;;4.87;3.73;;;9.40;99.90;;;;;;4933446;29;20414;-74
2023/10/31 01:56:22;;;;;;;5.30;4.30;;;9.40;99.90;;;;;;4932054;29;20304;-72
2023/10/31 01:58:49;;;;;;;5.07;3.50;;;9.30;99.90;;;;;;4919228;29;20497;-72
2023/10/31 02:01:16;;;;;;;4.50;4.10;;;9.20;99.90;;;;;;4927255;29;20544;-73
2023/10/31 02:03:42;;;;;;;5.97;4.20;;;9.20;99.90;;;;;;4940853;29;20736;-75
2023/10/31 02:06:07;;;;;;;10.90;5.70;;;9.30;99.90;;;;;;4921595;29;20456;-72
2023/10/31 02:08:33;;;;;;;7.83;6.70;;;9.30;99.90;;;;;;4925163;29;20196;-74
2023/10/31 02:10:59;;;;;;;9.97;7.27;;;9.40;99.90;;;;;;4939385;29;20205;-73
2023/10/31 02:13:24;;;;;;;15.40;7.20;;;9.40;99.90;;;;;;4920686;29;20216;-73
2023/10/31 02:15:50;;;;;;;20.07;11.83;;;9.40;99.90;;;;;;4929385;29;20210;-72
2023/10/31 02:18:16;;;;;;;15.27;9.73;;;9.40;99.90;;;;;;4931762;29;20189;-73
2023/10/31 02:20:41;;;;;;;11.43;7.43;;;9.30;99.90;;;;;;4934470;29;20182;-73
2023/10/31 02:23:07;;;;;;;10.43;6.10;;;9.30;99.90;;;;;;4924057;29;20189;-73
2023/10/31 02:25:33;;;;;;;7.67;5.03;;;9.20;99.90;;;;;;4920257;29;20441;-71
2023/10/31 02:27:59;;;;;;;10.03;5.37;;;9.20;99.90;;;;;;4890052;29;20202;-73
2023/10/31 02:30:26;;;;;;;10.87;5.03;;;9.20;99.90;;;;;;4917467;29;20417;-72
2023/10/31 02:32:51;;;;;;;7.30;4.53;;;9.10;99.90;;;;;;4908986;29;20182;-74
2023/10/31 02:35:18;;;;;;;9.10;4.67;;;9.10;99.90;;;;;;4940615;29;20961;-74
2023/10/31 02:37:44;;;;;;;5.70;3.73;;;9.10;99.90;;;;;;4906730;29;20182;-73
2023/10/31 02:40:11;;;;;;;4.67;3.40;;;9.10;99.90;;;;;;4911013;29;20429;-73
2023/10/31 02:42:36;;;;;;;7.40;3.17;;;9.10;99.90;;;;;;4936168;29;20524;-72
2023/10/31 02:45:03;;;;;;;10.40;3.57;;;9.00;99.90;;;;;;4922953;29;20532;-73
2023/10/31 02:47:28;;;;;;;7.17;4.67;;;8.90;99.90;;;;;;4934579;29;20585;-74
2023/10/31 02:49:55;;;;;;;3.90;3.37;;;8.90;99.90;;;;;;4937893;29;20460;-72
2023/10/31 02:52:21;;;;;;;9.13;4.00;;;9.00;99.90;;;;;;4917727;29;20498;-73
2023/10/31 02:54:46;;;;;;;5.50;3.10;;;9.00;99.90;;;;;;4930699;29;20218;-73
2023/10/31 02:57:12;;;;;;;9.67;4.10;;;8.90;99.90;;;;;;4913429;29;20198;-73
2023/10/31 02:59:38;;;;;;;5.33;3.90;;;8.90;99.90;;;;;;4904222;29;20206;-73
2023/10/31 03:02:03;;;;;;;7.67;3.50;;;8.90;99.90;;;;;;4914131;29;20217;-73
2023/10/31 03:04:29;;;;;;;3.00;2.27;;;8.90;99.90;;;;;;4930657;29;20210;-73
2023/10/31 03:06:54;;;;;;;4.10;2.87;;;8.90;99.90;;;;;;4914463;29;20214;-72
2023/10/31 03:09:20;;;;;;;4.83;2.97;;;9.00;99.90;;;;;;4904695;29;20257;-73
2023/10/31 03:11:46;;;;;;;3.97;2.83;;;9.00;99.90;;;;;;4909163;29;20607;-74
2023/10/31 03:14:11;;;;;;;5.87;3.30;;;9.00;99.90;;;;;;4934373;29;20547;-74
2023/10/31 03:16:38;;;;;;;6.83;2.80;;;9.00;99.90;;;;;;4905637;29;20605;-73
2023/10/31 03:19:04;;;;;;;6.20;2.60;;;9.00;99.90;;;;;;4929678;29;20198;-73
2023/10/31 03:21:29;;;;;;;3.80;2.30;;;9.00;99.90;;;;;;4920617;29;20466;-73
2023/10/31 03:23:55;;;;;;;4.03;2.30;;;8.90;99.90;;;;;;4921839;29;20217;-72
2023/10/31 03:26:21;;;;;;;2.90;2.30;;;8.90;99.90;;;;;;4913227;29;20202;-74
2023/10/31 03:28:47;;;;;;;3.60;2.40;;;9.00;99.90;;;;;;4928442;29;20426;-73
2023/10/31 03:31:14;;;;;;;5.43;2.60;;;9.10;99.90;;;;;;4908133;29;20488;-73
2023/10/31 03:33:40;;;;;;;3.77;2.20;;;9.20;99.90;;;;;;4936260;29;20438;-74
2023/10/31 03:36:06;;;;;;;2.53;2.03;;;9.20;99.90;;;;;;4926486;29;20544;-73
2023/10/31 03:38:32;;;;;;;6.07;3.00;;;9.20;99.90;;;;;;4918311;29;20520;-74
2023/10/31 03:40:58;;;;;;;3.50;1.97;;;9.30;99.90;;;;;;4924887;29;20438;-74
2023/10/31 03:43:23;;;;;;;4.07;2.23;;;9.30;99.90;;;;;;4940906;29;20198;-74
2023/10/31 03:45:49;;;;;;;3.00;2.33;;;9.30;99.90;;;;;;4919462;29;20298;-74
2023/10/31 03:48:16;;;;;;;4.80;2.50;;;9.30;99.90;;;;;;4907390;29;20254;-73
2023/10/31 03:50:41;;;;;;;6.80;2.17;;;9.30;99.90;;;;;;4924023;29;20252;-72
2023/10/31 03:53:07;;;;;;;6.80;2.70;;;9.30;99.90;;;;;;4929866;29;20881;-75
2023/10/31 03:55:34;;;;;;;5.70;2.90;;;9.40;99.90;;;;;;4943210;29;20361;-73
2023/10/31 03:58:01;;;;;;;3.57;1.93;;;9.40;99.90;;;;;;4928838;29;20645;-74
2023/10/31 04:00:26;;;;;;;3.30;1.90;;;9.40;99.90;;;;;;4930338;29;20417;-75
2023/10/31 04:02:52;;;;;;;4.63;2.83;;;9.40;99.90;;;;;;4933168;29;20221;-73
2023/10/31 04:05:18;;;;;;;3.10;2.20;;;9.40;99.90;;;;;;4925659;29;20241;-74
2023/10/31 04:07:45;;;;;;;2.73;1.50;;;9.40;99.90;;;;;;4913076;29;20191;-74
2023/10/31 04:10:11;;;;;;;4.10;2.20;;;9.40;99.90;;;;;;4938842;29;20413;-75
2023/10/31 04:12:36;;;;;;;3.10;1.63;;;9.50;99.90;;;;;;4912350;29;20457;-75
2023/10/31 04:15:03;;;;;;;2.63;1.43;;;9.50;99.90;;;;;;4935425;29;20312;-74
2023/10/31 04:17:28;;;;;;;1.93;1.30;;;9.60;99.90;;;;;;4934656;29;20190;-73
2023/10/31 04:19:54;;;;;;;4.37;1.80;;;9.60;99.90;;;;;;4925008;29;20975;-74
2023/10/31 04:22:19;;;;;;;4.80;1.50;;;9.60;99.90;;;;;;4918857;29;20213;-73
2023/10/31 04:24:45;;;;;;;2.80;1.60;;;9.60;99.90;;;;;;4925369;29;20210;-73
2023/10/31 04:27:10;;;;;;;4.33;2.10;;;9.70;99.90;;;;;;4927039;29;20250;-74
2023/10/31 04:29:36;;;;;;;2.77;1.50;;;9.70;99.90;;;;;;4924185;29;20190;-73
2023/10/31 04:32:02;;;;;;;4.50;1.70;;;9.70;99.90;;;;;;4923476;29;20217;-73
2023/10/31 04:34:28;;;;;;;2.53;1.40;;;9.80;99.90;;;;;;4924128;29;20211;-73
2023/10/31 04:36:53;;;;;;;2.50;1.77;;;9.80;99.90;;;;;;4913228;29;20759;-73
2023/10/31 04:39:19;;;;;;;2.53;1.33;;;9.90;99.90;;;;;;4931569;29;20580;-73
2023/10/31 04:41:44;;;;;;;3.70;1.57;;;9.90;99.90;;;;;;4942081;29;20519;-74
2023/10/31 04:44:10;;;;;;;2.00;1.50;;;9.90;99.90;;;;;;4932538;29;20276;-71
2023/10/31 04:46:36;;;;;;;3.07;1.30;;;10.00;99.90;;;;;;4924913;29;20676;-72
2023/10/31 04:49:01;;;;;;;1.90;1.33;;;10.00;99.90;;;;;;4906981;29;20191;-72
2023/10/31 04:51:27;;;;;;;1.63;1.20;;;10.10;99.90;;;;;;4923110;29;20486;-73
2023/10/31 04:53:53;;;;;;;1.30;1.10;;;10.10;99.90;;;;;;4932879;29;20206;-75
2023/10/31 04:56:19;;;;;;;1.97;1.50;;;10.20;99.90;;;;;;4924380;29;20518;-72
2023/10/31 04:58:44;;;;;;;4.10;1.57;;;10.20;99.90;;;;;;4924021;29;20219;-72
2023/10/31 05:01:13;;;;;;;2.47;1.47;;;10.30;99.90;;;;;;4923742;29;20270;-73
2023/10/31 05:03:39;;;;;;;2.40;1.50;;;10.40;99.90;;;;;;4920943;29;20281;-73
2023/10/31 05:06:06;;;;;;;4.67;2.20;;;10.40;99.90;;;;;;4929018;29;20496;-73
2023/10/31 05:08:32;;;;;;;2.70;1.73;;;10.50;99.90;;;;;;4932541;29;20452;-74
2023/10/31 05:10:58;;;;;;;4.30;2.00;;;10.60;99.90;;;;;;4922728;29;20454;-73
2023/10/31 05:13:24;;;;;;;5.00;2.10;;;10.60;99.90;;;;;;4939536;29;20197;-72
2023/10/31 05:15:50;;;;;;;3.10;1.60;;;10.60;99.90;;;;;;4941813;29;20517;-74
2023/10/31 05:18:16;;;;;;;3.70;2.10;;;10.60;99.90;;;;;;4915595;29;20794;-75
2023/10/31 05:20:42;;;;;;;3.10;2.23;;;10.70;99.90;;;;;;4926378;29;20859;-73
2023/10/31 05:23:08;;;;;;;3.87;2.10;;;10.60;99.90;;;;;;4930534;29;20559;-73
2023/10/31 05:25:34;;;;;;;3.57;2.20;;;10.70;99.90;;;;;;4926811;29;20701;-73
2023/10/31 05:28:00;;;;;;;4.83;2.27;;;10.60;99.90;;;;;;4920334;29;20686;-73
2023/10/31 05:30:26;;;;;;;5.00;3.20;;;10.60;99.90;;;;;;4934305;29;20433;-74
2023/10/31 05:32:52;;;;;;;2.77;2.10;;;10.60;99.90;;;;;;4924681;29;20424;-72
2023/10/31 05:35:19;;;;;;;3.17;1.90;;;10.60;99.90;;;;;;4933359;29;20529;-75
2023/10/31 05:37:45;;;;;;;2.73;2.10;;;10.60;99.90;;;;;;4926265;29;20419;-74
2023/10/31 05:40:12;;;;;;;3.90;2.80;;;10.70;99.90;;;;;;4927731;29;20888;-74
2023/10/31 05:42:38;;;;;;;2.50;2.30;;;10.60;99.90;;;;;;4933425;29;20466;-73
2023/10/31 05:45:04;;;;;;;2.67;2.43;;;10.70;99.90;;;;;;4930608;29;20461;-74
2023/10/31 05:47:30;;;;;;;5.00;2.50;;;10.70;99.90;;;;;;4924702;29;20203;-73
2023/10/31 05:49:55;;;;;;;2.57;2.37;;;10.70;99.90;;;;;;4930966;29;20471;-73
2023/10/31 05:52:21;;;;;;;2.93;2.30;;;10.70;99.90;;;;;;4907891;29;20238;-73
2023/10/31 05:54:46;;;;;;;2.30;2.10;;;10.70;99.90;;;;;;4931056;29;20240;-75
2023/10/31 05:57:12;;;;;;;3.73;2.00;;;10.80;99.90;;;;;;4926608;29;20205;-75
2023/10/31 05:59:37;;;;;;;3.80;1.77;;;10.80;99.90;;;;;;4923247;29;20611;-73
2023/10/31 06:02:03;;;;;;;3.23;2.10;;;10.80;99.90;;;;;;4942928;29;20215;-74
2023/10/31 06:04:28;;;;;;;3.73;2.30;;;10.80;99.90;;;;;;4914476;29;20512;-76
2023/10/31 06:06:54;;;;;;;2.90;2.03;;;10.90;99.90;;;;;;4927547;29;20190;-74
2023/10/31 06:09:20;;;;;;;2.53;2.07;;;10.90;99.90;;;;;;4933948;29;20229;-73
2023/10/31 06:11:45;;;;;;;2.70;2.20;;;10.90;99.90;;;;;;4923049;29;20566;-74
2023/10/31 06:14:12;;;;;;;2.67;1.90;;;10.90;99.90;;;;;;4928457;29;20205;-76
2023/10/31 06:16:43;;;;;;;3.47;1.90;;;10.90;99.90;;;;;;4922704;29;20206;-75
2023/10/31 06:19:09;;;;;;;3.40;2.80;;;10.90;99.90;;;;;;4920143;29;20558;-73
2023/10/31 06:21:35;;;;;;;2.77;2.17;;;10.90;99.90;;;;;;4941667;29;20453;-74
2023/10/31 06:24:01;;;;;;;2.90;1.63;;;10.90;99.90;;;;;;4934018;29;20750;-75
2023/10/31 06:26:27;;;;;;;3.30;2.47;;;11.00;99.90;;;;;;4900598;29;20210;-75
2023/10/31 06:28:52;;;;;;;3.67;2.33;;;11.00;99.90;;;;;;4927905;29;20429;-75
2023/10/31 06:31:18;;;;;;;3.17;2.30;;;11.00;99.90;;;;;;4941668;29;20223;-73
2023/10/31 06:33:43;;;;;;;2.70;2.17;;;11.00;99.90;;;;;;4925616;29;20223;-76
2023/10/31 06:36:09;;;;;;;3.63;2.20;;;11.00;99.90;;;;;;4934286;29;20219;-73
2023/10/31 06:38:34;;;;;;;2.67;2.47;;;11.00;99.90;;;;;;4934607;29;20204;-78
2023/10/31 06:41:00;;;;;;;4.00;2.80;;;11.00;99.90;;;;;;4926689;29;20182;-74
2023/10/31 06:43:27;;;;;;;5.23;2.70;;;11.10;99.90;;;;;;4935310;29;20269;-79
2023/10/31 06:45:53;;;;;;;3.60;2.77;;;11.00;99.90;;;;;;4936701;29;20518;-79
2023/10/31 06:48:18;;;;;;;3.60;2.40;;;11.00;99.90;;;;;;4919100;29;20423;-75
2023/10/31 06:50:44;;;;;;;3.00;2.43;;;11.00;99.90;;;;;;4918258;29;20608;-75
2023/10/31 06:53:10;;;;;;;3.73;3.10;;;11.00;99.90;;;;;;4928838;29;20213;-77
2023/10/31 06:55:36;;;;;;;2.80;2.60;;;11.00;99.90;;;;;;4916535;29;20230;-76
2023/10/31 06:58:02;;;;;;;2.97;2.70;;;11.00;99.90;;;;;;4902689;29;20515;-74
2023/10/31 07:00:28;;;;;;;4.60;2.90;;;11.00;99.90;;;;;;4925064;29;20423;-77
2023/10/31 07:02:53;;;;;;;4.73;2.90;;;11.10;99.90;;;;;;4910497;29;20478;-75
2023/10/31 07:05:20;;;;;;;5.13;3.50;;;11.10;99.90;;;;;;4926086;29;20446;-75
2023/10/31 07:07:47;;;;;;;3.73;3.20;;;11.10;99.90;;;;;;4926930;29;20194;-75
2023/10/31 07:10:12;;;;;;;3.40;2.80;;;11.10;99.90;;;;;;4922933;29;20454;-75
2023/10/31 07:12:38;;;;;;;4.03;3.20;;;11.20;99.90;;;;;;4945368;29;20445;-75
2023/10/31 07:15:04;;;;;;;3.13;2.37;;;11.20;99.90;;;;;;4912198;29;20226;-76
2023/10/31 07:17:30;;;;;;;8.80;4.40;;;11.20;99.90;;;;;;4931331;29;20201;-78
2023/10/31 07:19:56;;;;;;;5.67;4.23;;;11.20;99.90;;;;;;4915633;29;20439;-77
2023/10/31 07:22:24;;;;;;;5.57;3.60;;;11.20;99.90;;;;;;4928168;29;20457;-77
2023/10/31 07:24:51;;;;;;;4.53;2.90;;;11.20;99.90;;;;;;4907892;29;20210;-75
2023/10/31 07:27:17;;;;;;;11.83;4.50;;;11.30;99.90;;;;;;4914838;29;20432;-79
2023/10/31 07:29:43;;;;;;;3.37;2.50;;;11.30;99.90;;;;;;4934599;29;20454;-79
2023/10/31 07:32:09;;;;;;;3.57;2.80;;;11.30;99.90;;;;;;4909328;29;20715;-77
2023/10/31 07:34:35;;;;;;;4.37;3.00;;;11.30;99.90;;;;;;4924211;29;20324;-76
2023/10/31 07:37:01;;;;;;;3.40;2.63;;;11.30;99.90;;;;;;4923927;29;20901;-75
2023/10/31 07:39:27;;;;;;;4.63;3.10;;;11.30;99.90;;;;;;4942533;29;20193;-75
2023/10/31 07:41:52;;;;;;;4.50;3.20;;;11.40;99.90;;;;;;4920413;29;20481;-79
2023/10/31 07:44:18;;;;;;;3.63;3.20;;;11.40;99.90;;;;;;4905382;29;20182;-77
2023/10/31 07:46:43;;;;;;;3.80;3.20;;;11.40;99.90;;;;;;4912331;29;20571;-76
2023/10/31 07:49:09;;;;;;;4.67;3.57;;;11.40;99.90;;;;;;4919597;29;20191;-77
2023/10/31 07:51:35;;;;;;;6.17;4.50;;;11.40;99.90;;;;;;4937252;29;20190;-78
2023/10/31 07:54:01;;;;;;;5.07;3.67;;;11.40;99.90;;;;;;4926556;29;20271;-76
2023/10/31 07:56:26;;;;;;;4.20;3.10;;;11.50;99.90;;;;;;4944780;29;20212;-74
2023/10/31 07:58:52;;;;;;;4.67;3.10;;;11.50;99.90;;;;;;4924518;29;20621;-77
2023/10/31 08:01:18;;;;;;;4.90;3.40;;;11.40;99.90;;;;;;4926981;29;20253;-76
2023/10/31 08:03:46;;;;;;;5.50;3.90;;;11.40;99.90;;;;;;4909891;29;20573;-77
2023/10/31 08:06:11;;;;;;;4.70;3.33;;;11.30;99.90;;;;;;4903375;29;20476;-76
2023/10/31 08:08:37;;;;;;;2.77;2.47;;;11.40;99.90;;;;;;4916426;29;20485;-76
2023/10/31 08:11:03;;;;;;;3.10;2.63;;;11.40;99.90;;;;;;4901118;29;20190;-77
2023/10/31 08:13:29;;;;;;;3.90;2.80;;;11.50;99.90;;;;;;4939516;29;20443;-74
2023/10/31 08:15:55;;;;;;;3.20;2.30;;;11.50;99.90;;;;;;4917138;29;20230;-77
2023/10/31 08:18:23;;;;;;;5.37;2.73;;;11.60;99.90;;;;;;4914413;29;20493;-77
2023/10/31 08:20:50;;;;;;;3.13;2.70;;;11.80;99.90;;;;;;4927766;29;20197;-79
2023/10/31 08:23:17;;;;;;;2.83;2.60;;;11.90;99.90;;;;;;4932627;29;20457;-76
2023/10/31 08:25:43;;;;;;;3.53;2.90;;;12.00;99.90;;;;;;4943218;29;20457;-77
2023/10/31 08:28:09;;;;;;;6.33;2.70;;;12.10;99.90;;;;;;4919685;29;20436;-76
2023/10/31 08:30:35;;;;;;;3.30;2.73;;;12.30;99.90;;;;;;4904957;29;20454;-78
2023/10/31 08:33:01;;;;;;;5.63;2.43;;;12.40;99.90;;;;;;4898506;29;20227;-76
2023/10/31 08:35:27;;;;;;;3.00;2.70;;;12.40;99.90;;;;;;4914256;29;20451;-78
2023/10/31 08:37:53;;;;;;;3.60;2.70;;;12.50;99.90;;;;;;4928536;29;20437;-79
2023/10/31 08:40:19;;;;;;;3.73;2.40;;;12.60;99.90;;;;;;4926532;29;20427;-79
2023/10/31 08:42:45;;;;;;;2.70;2.30;;;12.60;99.90;;;;;;4936513;29;20520;-78
2023/10/31 08:45:11;;;;;;;4.90;2.87;;;12.70;99.90;;;;;;4901894;29;20482;-76
2023/10/31 08:47:37;;;;;;;5.73;2.90;;;12.80;99.90;;;;;;4926290;29;20185;-78
2023/10/31 08:50:03;;;;;;;5.00;2.87;;;12.80;99.90;;;;;;4932162;29;20185;-76
2023/10/31 08:52:28;;;;;;;2.43;2.00;;;12.80;99.90;;;;;;4916548;29;20198;-77
2023/10/31 08:54:54;;;;;;;2.17;1.97;;;12.90;99.90;;;;;;4940577;29;20480;-76
2023/10/31 08:57:20;;;;;;;2.20;2.00;;;13.10;99.90;;;;;;4923149;29;20258;-77
2023/10/31 08:59:46;;;;;;;5.00;3.53;;;13.30;99.90;;;;;;4933521;29;20206;-77
2023/10/31 09:02:11;;;;;;;3.07;2.03;;;13.40;99.90;;;;;;4923908;29;20974;-77
2023/10/31 09:04:38;;;;;;;3.43;2.73;;;13.50;99.90;;;;;;4916984;29;20206;-77
2023/10/31 09:07:04;;;;;;;4.50;2.93;;;13.60;99.90;;;;;;4922899;29;20181;-75
2023/10/31 09:09:30;;;;;;;4.53;3.13;;;13.70;99.90;;;;;;4932376;29;20792;-75
2023/10/31 09:11:55;;;;;;;5.10;2.97;;;13.90;99.90;;;;;;4927410;29;20220;-75
2023/10/31 09:14:21;;;;;;;3.30;2.67;;;14.00;99.90;;;;;;4916117;29;20224;-76
2023/10/31 09:16:47;;;;;;;9.63;3.73;;;14.00;99.90;;;;;;4900770;29;20187;-75
2023/10/31 09:19:13;;;;;;;3.80;3.00;;;14.10;99.90;;;;;;4905188;29;20414;-77
2023/10/31 09:21:38;;;;;;;3.10;2.80;;;13.90;99.90;;;;;;4926794;29;20692;-75
2023/10/31 09:24:04;;;;;;;3.13;2.80;;;13.70;99.90;;;;;;4920636;29;20194;-77
2023/10/31 09:26:30;;;;;;;3.43;2.73;;;13.60;99.90;;;;;;4935595;29;20251;-78
2023/10/31 09:28:56;;;;;;;5.70;2.60;;;13.80;99.90;;;;;;4926511;29;20425;-77
2023/10/31 09:31:22;;;;;;;6.27;2.30;;;13.90;99.90;;;;;;4934533;29;20877;-75
2023/10/31 09:33:47;;;;;;;3.70;2.47;;;14.00;99.90;;;;;;4934564;29;20201;-80
2023/10/31 09:36:14;;;;;;;6.17;2.00;;;14.10;99.90;;;;;;4930921;29;20238;-79
2023/10/31 09:38:40;;;;;;;3.43;2.20;;;14.10;99.90;;;;;;4926066;29;20484;-78
2023/10/31 09:41:06;;;;;;;2.23;1.90;;;14.10;99.90;;;;;;4933826;29;20858;-75
2023/10/31 09:43:31;;;;;;;2.10;1.87;;;14.20;99.90;;;;;;4914431;29;20202;-75
2023/10/31 09:46:00;;;;;;;2.87;1.80;;;14.20;99.90;;;;;;4917158;29;20461;-77
2023/10/31 09:48:26;;;;;;;2.00;1.50;;;14.20;99.90;;;;;;4914640;29;20198;-75
2023/10/31 09:50:54;;;;;;;3.40;1.50;;;14.20;99.90;;;;;;4930814;29;20701;-78
2023/10/31 09:53:20;;;;;;;2.00;1.57;;;14.20;99.90;;;;;;4912579;29;20276;-78
2023/10/31 09:55:47;;;;;;;2.07;1.73;;;14.20;99.90;;;;;;4932816;29;20465;-77
2023/10/31 09:58:12;;;;;;;2.87;1.70;;;14.30;99.90;;;;;;4907272;29;20274;-79
2023/10/31 10:00:40;;;;;;;3.50;1.47;;;14.40;99.90;;;;;;4900066;29;20423;-76
2023/10/31 10:03:11;;;;;;;2.40;1.20;;;14.50;99.90;;;;;;4935154;29;20213;-77
2023/10/31 10:05:40;;;;;;;1.90;1.30;;;14.50;99.90;;;;;;4909895;29;20583;-80
2023/10/31 10:08:07;;;;;;;3.40;1.70;;;14.50;99.90;;;;;;4921093;29;20413;-79
2023/10/31 10:10:34;;;;;;;2.93;1.87;;;14.60;99.90;;;;;;4903193;29;20442;-79
2023/10/31 10:13:02;;;;;;;5.70;1.83;;;14.60;99.90;;;;;;4918061;29;20421;-76
2023/10/31 10:15:28;;;;;;;3.20;1.67;;;14.50;99.90;;;;;;4930410;29;20453;-77
2023/10/31 10:17:54;;;;;;;3.30;1.50;;;14.40;99.90;;;;;;4941146;29;20864;-76
2023/10/31 10:20:20;;;;;;;2.27;1.23;;;14.40;99.90;;;;;;4943689;29;20454;-78
2023/10/31 10:22:46;;;;;;;1.83;1.00;;;14.40;99.90;;;;;;4949762;29;20220;-77
2023/10/31 10:25:18;;;;;;;3.67;1.27;;;14.30;99.90;;;;;;4940399;29;20488;-78
2023/10/31 10:27:45;;;;;;;2.80;1.00;;;14.40;99.90;;;;;;4931180;29;20443;-78
2023/10/31 10:30:12;;;;;;;2.10;1.47;;;14.50;99.90;;;;;;4914739;29;20422;-78
2023/10/31 10:32:38;;;;;;;3.57;1.20;;;14.50;99.90;;;;;;4945451;29;20457;-77
2023/10/31 10:35:05;;;;;;;2.07;1.10;;;14.50;99.90;;;;;;4934071;29;20426;-76
2023/10/31 10:37:31;;;;;;;2.43;1.07;;;14.60;99.30;;;;;;4923120;29;20186;-77
2023/10/31 10:39:59;;;;;;;2.03;1.13;;;14.70;98.30;;;;;;4909754;29;20433;-79
2023/10/31 10:42:47;;;;;;;5.70;1.23;;;14.90;97.30;;;;;;4930773;29;20470;-80
2023/10/31 10:45:15;;;;;;;1.57;1.10;;;15.20;95.50;;;;;;4920994;29;20443;-77
2023/10/31 10:47:45;;;;;;;1.80;1.30;;;15.50;93.60;;;;;;4926535;29;20426;-79
2023/10/31 10:50:12;;;;;;;3.27;1.00;;;15.70;91.60;;;;;;4913982;29;20426;-76
2023/10/31 10:53:07;;;;;;;2.50;1.07;;;15.80;87.10;;;;;;4923517;29;20842;-79
2023/10/31 10:55:39;;;;;;;3.60;0.77;;;15.80;85.80;;;;;;4902399;29;20449;-80
2023/10/31 10:58:13;;;;;;;6.93;1.73;;;15.80;87.30;;;;;;4927050;29;20468;-78
2023/10/31 11:00:40;;;;;;;2.73;1.33;;;15.90;86.00;;;;;;4885273;29;20710;-76
2023/10/31 11:03:07;;;;;;;3.20;1.30;;;15.90;84.50;;;;;;4909150;29;20893;-76
2023/10/31 11:05:35;;;;;;;2.73;1.03;;;16.00;83.50;;;;;;4902025;29;20453;-78
2023/10/31 11:08:02;;;;;;;1.90;0.90;;;16.00;81.00;;;;;;4903581;29;20448;-80
2023/10/31 11:10:29;;;;;;;1.17;0.73;;;16.00;81.70;;;;;;4902208;29;20425;-78
2023/10/31 11:12:56;;;;;;;6.97;2.03;;;16.00;80.90;;;;;;4901562;29;20511;-79
2023/10/31 11:15:23;;;;;;;5.03;1.90;;;16.00;81.20;;;;;;4902802;29;20470;-77
2023/10/31 11:17:51;;;;;;;2.57;1.10;;;16.00;81.30;;;;;;4925304;29;20459;-77
2023/10/31 11:20:17;;;;;;;4.03;1.60;;;16.00;79.50;;;;;;4912829;29;20916;-74
2023/10/31 11:22:49;;;;;;;2.37;0.97;;;15.90;79.30;;;;;;4906503;29;20469;-76
2023/10/31 11:25:23;;;;;;;1.63;1.43;;;15.80;79.80;;;;;;4908689;29;20433;-78
2023/10/31 11:27:53;;;;;;;4.27;1.40;;;15.80;81.00;;;;;;4915748;29;20444;-78
2023/10/31 11:30:27;;;;;;;3.10;1.20;;;15.80;81.20;;;;;;4900872;29;20447;-78
2023/10/31 11:32:55;;;;;;;3.47;1.17;;;15.80;80.40;;;;;;4917989;29;20426;-77
2023/10/31 11:35:25;;;;;;;7.73;1.60;;;15.80;78.10;;;;;;4921929;29;20436;-77
2023/10/31 11:38:06;;;;;;;3.00;1.37;;;15.70;79.00;;;;;;4941586;29;20441;-77
2023/10/31 11:40:33;;;;;;;3.20;1.60;;;15.70;79.50;;;;;;4942615;29;20486;-79
2023/10/31 11:43:03;;;;;;;3.33;1.37;;;15.60;78.80;;;;;;4949310;29;20639;-77
2023/10/31 11:45:37;;;;;;;5.70;2.03;;;15.50;80.40;;;;;;4932467;29;20447;-75
2023/10/31 11:48:07;;;;;;;2.40;1.50;;;15.60;80.90;;;;;;4926106;29;20432;-78
2023/10/31 11:50:34;;;;;;;5.53;2.33;;;15.60;80.40;;;;;;4929285;29;20813;-78
2023/10/31 11:53:08;;;;;;;2.67;1.47;;;15.50;80.40;;;;;;4953385;29;20434;-78
2023/10/31 11:55:40;;;;;;;1.50;1.00;;;15.50;81.40;;;;;;4938524;29;20461;-77
2023/10/31 11:58:21;;;;;;;1.63;1.30;;;15.50;81.50;;;;;;4938070;29;20514;-77
2023/10/31 12:00:52;;;;;;;3.70;1.80;;;15.60;81.80;;;;;;4919599;29;20420;-77
2023/10/31 12:03:20;;;;;;;2.33;1.40;;;15.60;81.30;;;;;;4937341;29;20474;-78
2023/10/31 12:06:01;;;;;;;2.00;1.63;;;15.60;80.90;;;;;;4955427;29;20434;-80
2023/10/31 12:08:38;;;;;;;2.53;1.20;;;15.70;81.10;;;;;;4909517;29;20456;-79
2023/10/31 12:11:05;;;;;;;3.10;1.47;;;15.70;79.90;;;;;;4922877;29;20428;-78
2023/10/31 12:13:31;;;;;;;2.30;1.70;;;15.80;79.70;;;;;;4918258;29;20419;-77
2023/10/31 12:15:58;;;;;;;3.03;1.53;;;15.90;79.00;;;;;;4920219;29;20447;-79
2023/10/31 12:18:26;;;;;;;3.10;1.60;;;15.90;78.40;;;;;;4942095;29;20168;-78
2023/10/31 12:20:52;;;;;;;4.43;2.43;;;15.90;78.40;;;;;;4945361;29;20421;-80
2023/10/31 12:23:18;;;;;;;1.63;1.10;;;15.90;77.60;;;;;;4916726;29;20228;-78
2023/10/31 12:25:51;;;;;;;1.70;1.20;;;15.90;77.80;;;;;;4918854;29;20764;-78
2023/10/31 12:28:21;;;;;;;2.47;1.30;;;16.00;78.40;;;;;;4918353;29;20185;-79
2023/10/31 12:30:54;;;;;;;2.40;1.50;;;16.00;76.90;;;;;;4918017;29;20439;-79
2023/10/31 12:33:24;;;;;;;4.27;1.60;;;16.00;78.00;;;;;;4908410;29;20425;-77
2023/10/31 12:35:56;;;;;;;5.07;2.40;;;16.10;77.70;;;;;;4921380;29;20458;-76
2023/10/31 12:38:22;;;;;;;4.17;1.60;;;16.10;77.40;;;;;;4930228;29;20569;-79
2023/10/31 12:40:48;;;;;;;4.60;1.90;;;16.20;77.10;;;;;;4907356;29;20445;-80
2023/10/31 12:43:15;;;;;;;4.60;1.70;;;16.30;77.10;;;;;;4907440;29;20460;-78
2023/10/31 12:45:41;;;;;;;3.23;1.40;;;16.30;76.20;;;;;;4927821;29;20449;-78